createdAt,value
2022-09-15T00:02:23.753Z,80.09
2022-09-15T00:04:52.466Z,80.04
2022-09-15T00:07:21.142Z,79.95
2022-09-15T00:09:52.552Z,80.30
2022-09-15T00:12:22.755Z,80.00
2022-09-15T00:14:52.819Z,80.16
2022-09-15T00:17:21.853Z,79.96
2022-09-15T00:19:51.946Z,80.23
2022-09-15T00:22:24.329Z,80.11
2022-09-15T00:24:54.788Z,79.70
2022-09-15T00:27:24.823Z,79.57
2022-09-15T00:29:54.532Z,79.65
2022-09-15T00:32:24.842Z,79.44
2022-09-15T00:34:54.562Z,79.63
2022-09-15T00:37:24.706Z,79.36
2022-09-15T00:39:55.182Z,78.93
2022-09-15T00:42:25.358Z,78.94
2022-09-15T00:45:01.645Z,79.16
2022-09-15T00:47:36.470Z,78.58
2022-09-15T00:50:15.734Z,78.90
2022-09-15T00:52:50.052Z,78.85
2022-09-15T00:55:26.068Z,79.16
2022-09-15T00:58:04.791Z,78.59
2022-09-15T01:03:25.645Z,79.13
2022-09-15T01:06:16.179Z,78.98
2022-09-15T01:09:17.147Z,78.92
2022-09-15T01:11:47.242Z,78.87
2022-09-15T01:14:17.385Z,79.06
2022-09-15T01:17:20.969Z,78.89
2022-09-15T01:19:55.765Z,78.98
2022-09-15T01:22:54.440Z,79.27
2022-09-15T01:25:36.640Z,79.80
2022-09-15T01:28:30.681Z,80.19
2022-09-15T01:31:16.945Z,79.90
2022-09-15T01:34:17.990Z,80.06
2022-09-15T01:36:59.561Z,80.38
2022-09-15T01:39:38.882Z,81.43
2022-09-15T01:42:12.494Z,81.37
2022-09-15T01:44:43.076Z,81.07
2022-09-15T01:47:16.178Z,81.26
2022-09-15T01:49:56.192Z,81.11
2022-09-15T01:52:29.330Z,81.22
2022-09-15T01:55:04.654Z,81.02
2022-09-15T01:57:34.925Z,81.08
2022-09-15T02:00:05.559Z,81.23
2022-09-15T02:02:44.346Z,81.24
2022-09-15T02:05:26.008Z,81.16
2022-09-15T02:08:02.217Z,80.69
2022-09-15T02:10:45.100Z,81.09
2022-09-15T02:13:21.575Z,80.78
2022-09-15T02:16:00.617Z,81.38
2022-09-15T02:18:47.671Z,81.57
2022-09-15T02:21:23.885Z,81.36
2022-09-15T02:24:04.696Z,81.40
2022-09-15T02:26:37.532Z,81.78
2022-09-15T02:29:10.708Z,81.64
2022-09-15T02:31:43.075Z,81.81
2022-09-15T02:34:26.175Z,81.83
2022-09-15T02:36:57.922Z,82.02
2022-09-15T02:39:33.414Z,81.49
2022-09-15T02:42:04.347Z,81.94
2022-09-15T02:44:33.792Z,81.98
2022-09-15T02:47:05.199Z,81.96
2022-09-15T02:49:35.132Z,81.87
2022-09-15T02:52:05.326Z,81.96
2022-09-15T02:54:35.109Z,81.75
2022-09-15T02:57:05.450Z,81.78
2022-09-15T02:59:54.360Z,81.80
2022-09-15T03:02:25.632Z,81.68
2022-09-15T03:04:54.945Z,81.77
2022-09-15T03:07:25.269Z,81.77
2022-09-15T03:09:55.258Z,81.88
2022-09-15T03:12:24.846Z,81.37
2022-09-15T03:14:54.457Z,81.61
2022-09-15T03:17:25.576Z,81.68
2022-09-15T03:19:55.572Z,81.43
2022-09-15T03:22:25.794Z,81.54
2022-09-15T03:24:54.292Z,81.48
2022-09-15T03:27:24.558Z,81.68
2022-09-15T03:29:54.215Z,81.43
2022-09-15T03:32:24.348Z,81.20
2022-09-15T03:34:58.343Z,81.35
2022-09-15T03:37:29.608Z,81.49
2022-09-15T03:39:59.954Z,81.45
2022-09-15T03:42:30.252Z,81.71
2022-09-15T03:44:59.864Z,81.55
2022-09-15T03:47:29.966Z,81.71
2022-09-15T03:49:59.504Z,81.92
2022-09-15T03:52:32.361Z,82.31
2022-09-15T03:55:02.654Z,82.31
2022-09-15T03:57:32.658Z,82.18
2022-09-15T04:00:03.932Z,82.26
2022-09-15T04:02:34.063Z,82.41
2022-09-15T04:05:04.297Z,82.20
2022-09-15T04:07:33.013Z,82.46
2022-09-15T04:10:02.779Z,82.42
2022-09-15T04:12:32.783Z,82.37
2022-09-15T04:15:04.644Z,82.40
2022-09-15T04:17:33.800Z,82.52
2022-09-15T04:20:03.853Z,82.30
2022-09-15T04:22:34.094Z,82.39
2022-09-15T04:25:02.493Z,82.36
2022-09-15T04:27:34.719Z,82.48
2022-09-15T04:30:04.825Z,82.51
2022-09-15T04:32:36.045Z,82.32
2022-09-15T04:35:05.816Z,82.24
2022-09-15T04:37:35.484Z,82.12
2022-09-15T04:40:04.865Z,82.13
2022-09-15T04:42:34.162Z,82.05
2022-09-15T04:45:04.167Z,82.03
2022-09-15T04:47:32.570Z,81.97
2022-09-15T04:50:02.616Z,81.88
2022-09-15T04:52:32.500Z,81.72
2022-09-15T04:55:02.482Z,81.69
2022-09-15T04:57:34.206Z,81.63
2022-09-15T05:00:06.864Z,81.51
2022-09-15T05:02:36.250Z,81.61
2022-09-15T05:05:06.333Z,81.77
2022-09-15T05:07:35.509Z,82.03
2022-09-15T05:10:05.478Z,82.56
2022-09-15T05:12:34.836Z,82.16
2022-09-15T05:15:04.563Z,81.98
2022-09-15T05:17:33.948Z,81.62
2022-09-15T05:20:05.423Z,80.90
2022-09-15T05:22:38.294Z,79.65
2022-09-15T05:25:11.528Z,77.49
2022-09-15T05:27:42.959Z,75.03
2022-09-15T05:33:05.375Z,72.20
2022-09-15T05:35:35.603Z,70.61
2022-09-15T05:38:05.176Z,70.24
2022-09-15T05:40:35.266Z,69.69
2022-09-15T05:43:06.618Z,68.39
2022-09-15T05:45:36.704Z,67.91
2022-09-15T05:48:05.642Z,67.44
2022-09-15T05:50:39.068Z,66.86
2022-09-15T05:53:08.274Z,66.55
2022-09-15T05:55:40.090Z,65.67
2022-09-15T05:58:08.604Z,65.36
2022-09-15T06:00:38.907Z,64.92
2022-09-15T06:03:15.309Z,65.16
2022-09-15T06:05:45.103Z,65.07
2022-09-15T06:08:13.949Z,64.57
2022-09-15T06:10:43.871Z,64.67
2022-09-15T06:13:15.130Z,64.62
2022-09-15T06:15:45.543Z,64.46
2022-09-15T06:18:16.554Z,64.51
2022-09-15T06:20:46.264Z,64.80
2022-09-15T06:23:16.319Z,64.84
2022-09-15T06:25:46.273Z,64.84
2022-09-15T06:28:15.964Z,65.32
2022-09-15T06:30:50.241Z,65.40
2022-09-15T06:33:19.953Z,64.48
2022-09-15T06:35:48.417Z,64.28
2022-09-15T06:38:19.104Z,64.05
2022-09-15T06:41:07.536Z,63.67
2022-09-15T06:43:38.248Z,64.19
2022-09-15T06:46:12.581Z,63.97
2022-09-15T06:48:46.332Z,63.73
2022-09-15T06:51:21.133Z,62.91
2022-09-15T06:53:53.836Z,61.83
2022-09-15T06:56:24.463Z,60.99
2022-09-15T06:58:58.829Z,61.50
2022-09-15T07:01:37.960Z,60.40
2022-09-15T07:04:11.192Z,60.04
2022-09-15T07:06:40.420Z,59.20
2022-09-15T07:09:11.750Z,58.96
2022-09-15T07:11:41.671Z,58.55
2022-09-15T07:14:12.167Z,59.51
2022-09-15T07:16:42.180Z,59.44
2022-09-15T07:19:13.182Z,58.51
2022-09-15T07:21:42.770Z,57.85
2022-09-15T07:24:13.477Z,57.44
2022-09-15T07:26:43.151Z,56.99
2022-09-15T07:29:13.537Z,57.49
2022-09-15T07:31:43.708Z,56.65
2022-09-15T07:34:13.717Z,57.27
2022-09-15T07:36:42.327Z,57.26
2022-09-15T07:39:14.367Z,57.17
2022-09-15T07:41:44.456Z,57.63
2022-09-15T07:44:14.598Z,57.83
2022-09-15T07:46:44.987Z,57.45
2022-09-15T07:49:14.907Z,56.38
2022-09-15T07:51:45.154Z,56.83
2022-09-15T07:54:18.288Z,56.37
2022-09-15T07:56:52.057Z,56.46
2022-09-15T07:59:21.970Z,56.68
2022-09-15T08:01:51.802Z,57.17
2022-09-15T08:04:21.787Z,57.92
2022-09-15T08:06:50.584Z,58.31
2022-09-15T08:09:21.819Z,58.77
2022-09-15T08:11:50.790Z,59.18
2022-09-15T08:14:21.834Z,59.67
2022-09-15T08:16:51.748Z,60.02
2022-09-15T08:19:21.861Z,60.34
2022-09-15T08:21:51.748Z,60.49
2022-09-15T08:24:22.951Z,60.78
2022-09-15T08:26:52.997Z,60.86
2022-09-15T08:29:23.282Z,61.00
2022-09-15T08:31:54.808Z,60.90
2022-09-15T08:34:25.087Z,61.22
2022-09-15T08:36:55.178Z,61.50
2022-09-15T08:39:25.045Z,61.57
2022-09-15T08:41:56.362Z,61.46
2022-09-15T08:44:35.804Z,60.84
2022-09-15T08:47:09.122Z,60.91
2022-09-15T08:50:23.529Z,61.37
2022-09-15T08:53:02.257Z,61.89
2022-09-15T08:55:52.799Z,61.84
2022-09-15T08:58:26.317Z,61.52
2022-09-15T09:01:05.289Z,60.97
2022-09-15T09:03:44.306Z,61.42
2022-09-15T09:06:29.852Z,61.43
2022-09-15T09:09:15.650Z,61.04
2022-09-15T09:11:59.672Z,60.85
2022-09-15T09:15:07.220Z,61.12
2022-09-15T09:17:44.931Z,61.30
2022-09-15T09:20:33.746Z,61.74
2022-09-15T09:23:12.473Z,61.78
2022-09-15T09:25:43.945Z,61.85
2022-09-15T09:28:29.788Z,62.00
2022-09-15T09:31:08.820Z,62.08
2022-09-15T09:34:11.881Z,62.20
2022-09-15T09:36:42.917Z,62.19
2022-09-15T09:39:15.605Z,62.77
2022-09-15T09:41:45.918Z,62.64
2022-09-15T09:44:16.196Z,62.58
2022-09-15T09:46:47.606Z,62.62
2022-09-15T09:49:25.014Z,62.02
2022-09-15T09:52:02.963Z,61.08
2022-09-15T09:54:36.056Z,60.90
2022-09-15T09:57:15.731Z,60.09
2022-09-15T09:59:53.618Z,58.45
2022-09-15T10:02:29.521Z,58.60
2022-09-15T10:05:09.968Z,58.36
2022-09-15T10:07:44.179Z,57.95
2022-09-15T10:10:25.090Z,57.89
2022-09-15T10:12:59.805Z,58.46
2022-09-15T10:15:35.755Z,59.00
2022-09-15T10:18:06.049Z,57.21
2022-09-15T10:20:48.545Z,54.05
2022-09-15T10:23:18.650Z,52.90
2022-09-15T10:25:59.217Z,53.24
2022-09-15T10:28:31.103Z,52.64
2022-09-15T10:31:33.007Z,51.09
2022-09-15T10:34:25.984Z,51.04
2022-09-15T10:37:28.900Z,50.46
2022-09-15T10:40:03.463Z,50.90
2022-09-15T10:43:17.010Z,50.68
2022-09-15T10:46:00.409Z,51.55
2022-09-15T10:48:38.934Z,51.98
2022-09-15T10:51:22.640Z,51.35
2022-09-15T10:54:01.370Z,52.30
2022-09-15T10:56:42.536Z,50.79
2022-09-15T10:59:39.941Z,49.53
2022-09-15T11:02:27.649Z,49.77
2022-09-15T11:05:12.091Z,50.47
2022-09-15T11:08:00.404Z,50.60
2022-09-15T11:11:04.853Z,49.95
2022-09-15T11:13:54.264Z,48.31
2022-09-15T11:16:54.086Z,47.06
2022-09-15T11:19:26.139Z,48.02
2022-09-15T11:22:10.201Z,48.39
2022-09-15T11:24:51.941Z,49.07
2022-09-15T11:27:29.376Z,48.43
2022-09-15T11:30:15.123Z,47.85
2022-09-15T11:33:14.118Z,47.26
2022-09-15T11:35:51.337Z,48.79
2022-09-15T11:38:43.579Z,49.06
2022-09-15T11:41:37.072Z,48.01
2022-09-15T11:44:28.715Z,48.26
2022-09-15T11:47:16.760Z,49.47
2022-09-15T11:50:04.560Z,48.95
2022-09-15T11:53:03.723Z,48.56
2022-09-15T11:55:55.547Z,48.78
2022-09-15T11:58:59.301Z,48.95
2022-09-15T12:01:56.485Z,46.91
2022-09-15T12:04:26.053Z,46.21
2022-09-15T12:07:04.985Z,45.18
2022-09-15T12:09:35.435Z,44.38
2022-09-15T12:12:13.302Z,43.90
2022-09-15T12:14:45.371Z,43.55
2022-09-15T12:17:25.185Z,42.30
2022-09-15T12:20:07.268Z,41.20
2022-09-15T12:22:46.730Z,40.97
2022-09-15T12:25:36.474Z,42.05
2022-09-15T12:28:25.205Z,39.63
2022-09-15T12:31:40.025Z,41.44
2022-09-15T12:34:38.791Z,40.18
2022-09-15T12:37:15.154Z,41.24
2022-09-15T12:39:47.324Z,39.83
2022-09-15T12:42:32.075Z,39.11
2022-09-15T12:45:04.666Z,39.26
2022-09-15T12:47:49.428Z,39.04
2022-09-15T12:50:27.571Z,38.85
2022-09-15T12:53:05.236Z,38.83
2022-09-15T12:55:37.710Z,39.15
2022-09-15T12:58:16.810Z,39.01
2022-09-15T13:01:16.540Z,39.73
2022-09-15T13:03:42.235Z,40.13
2022-09-15T13:06:19.704Z,38.61
2022-09-15T13:09:02.662Z,39.08
2022-09-15T13:11:38.318Z,37.87
2022-09-15T13:14:33.287Z,37.44
2022-09-15T13:17:13.807Z,38.49
2022-09-15T13:19:58.686Z,38.40
2022-09-15T13:22:45.083Z,38.73
2022-09-15T13:25:17.275Z,39.08
2022-09-15T13:27:51.277Z,39.26
2022-09-15T13:31:01.019Z,38.92
2022-09-15T13:40:59.524Z,40.38
2022-09-15T13:43:56.685Z,40.71
2022-09-15T13:46:47.226Z,40.57
2022-09-15T13:49:33.534Z,41.28
2022-09-15T13:52:33.060Z,42.34
2022-09-15T13:55:21.811Z,42.62
2022-09-15T14:00:46.339Z,43.53
2022-09-15T14:03:45.254Z,44.10
2022-09-15T14:06:25.153Z,44.61
2022-09-15T14:08:59.202Z,44.46
2022-09-15T14:11:35.190Z,44.88
2022-09-15T14:14:11.061Z,45.16
2022-09-15T14:16:50.093Z,45.55
2022-09-15T14:19:34.699Z,45.94
2022-09-15T14:22:34.862Z,46.54
2022-09-15T14:25:17.002Z,46.62
2022-09-15T14:27:52.588Z,47.19
2022-09-15T14:30:35.161Z,47.08
2022-09-15T14:33:05.036Z,47.50
2022-09-15T14:35:40.211Z,47.14
2022-09-15T14:38:22.007Z,47.69
2022-09-15T14:40:57.260Z,47.44
2022-09-15T14:43:32.569Z,47.99
2022-09-15T14:46:12.749Z,48.06
2022-09-15T14:48:42.643Z,47.83
2022-09-15T14:51:25.779Z,48.07
2022-09-15T14:54:00.666Z,48.20
2022-09-15T14:56:42.317Z,47.81
2022-09-15T14:59:28.511Z,47.85
2022-09-15T15:02:08.623Z,47.91
2022-09-15T15:04:49.930Z,47.69
2022-09-15T15:07:29.550Z,48.05
2022-09-15T15:10:02.302Z,48.24
2022-09-15T15:12:45.508Z,48.00
2022-09-15T15:15:22.855Z,47.95
2022-09-15T15:17:57.462Z,48.29
2022-09-15T15:20:31.225Z,48.49
2022-09-15T15:23:16.011Z,48.81
2022-09-15T15:25:49.255Z,48.91
2022-09-15T15:28:34.339Z,49.18
2022-09-15T15:31:28.904Z,49.00
2022-09-15T15:34:05.817Z,49.26
2022-09-15T15:36:36.807Z,49.43
2022-09-15T15:39:08.148Z,49.63
2022-09-15T15:41:42.767Z,50.04
2022-09-15T15:44:16.170Z,49.94
2022-09-15T15:46:55.951Z,49.85
2022-09-15T15:49:28.085Z,49.68
2022-09-15T15:52:02.163Z,49.56
2022-09-15T15:54:34.625Z,49.80
2022-09-15T15:57:27.082Z,49.92
2022-09-15T15:59:58.711Z,50.49
2022-09-15T16:02:28.685Z,50.84
2022-09-15T16:04:57.931Z,51.41
2022-09-15T16:07:32.524Z,52.55
2022-09-15T16:10:04.003Z,53.19
2022-09-15T16:12:35.432Z,53.85
2022-09-15T16:15:18.182Z,54.81
2022-09-15T16:17:47.758Z,55.79
2022-09-15T16:20:21.805Z,55.97
2022-09-15T16:22:52.462Z,56.26
2022-09-15T16:25:37.403Z,56.31
2022-09-15T16:28:06.650Z,56.88
2022-09-15T16:30:36.660Z,57.38
2022-09-15T16:33:06.676Z,57.68
2022-09-15T16:35:40.167Z,57.92
2022-09-15T16:38:10.137Z,58.41
2022-09-15T16:40:42.687Z,58.60
2022-09-15T16:43:20.051Z,59.90
2022-09-15T16:45:53.377Z,59.61
2022-09-15T16:48:28.067Z,59.71
2022-09-15T16:53:55.020Z,60.43
2022-09-15T16:56:25.108Z,61.39
2022-09-15T16:59:00.133Z,61.40
2022-09-15T17:01:30.934Z,62.11
2022-09-15T17:04:02.404Z,62.33
2022-09-15T17:06:31.753Z,62.66
2022-09-15T17:09:01.137Z,62.81
2022-09-15T17:11:33.343Z,62.82
2022-09-15T17:14:03.542Z,63.00
2022-09-15T17:16:33.285Z,63.08
2022-09-15T17:19:02.900Z,63.15
2022-09-15T17:21:32.196Z,63.68
2022-09-15T17:24:01.917Z,64.26
2022-09-15T17:26:31.836Z,64.40
2022-09-15T17:29:01.711Z,64.83
2022-09-15T17:31:32.711Z,64.69
2022-09-15T17:34:02.977Z,64.57
2022-09-15T17:36:33.946Z,64.80
2022-09-15T17:39:06.394Z,64.22
2022-09-15T17:41:36.249Z,63.58
2022-09-15T17:44:11.141Z,63.86
2022-09-15T17:46:41.015Z,63.80
2022-09-15T17:49:14.389Z,63.50
2022-09-15T17:51:44.630Z,63.58
2022-09-15T17:54:14.831Z,63.55
2022-09-15T17:56:44.444Z,63.76
2022-09-15T17:59:16.231Z,63.95
2022-09-15T18:01:46.610Z,64.04
2022-09-15T18:04:16.581Z,63.42
2022-09-15T18:06:46.300Z,61.45
2022-09-15T18:09:15.189Z,60.26
2022-09-15T18:11:44.868Z,59.31
2022-09-15T18:14:15.012Z,60.89
2022-09-15T18:16:43.585Z,61.25
2022-09-15T18:19:13.608Z,60.25
2022-09-15T18:21:45.166Z,60.39
2022-09-15T18:24:15.750Z,60.32
2022-09-15T18:26:45.501Z,60.64
2022-09-15T18:29:15.474Z,60.95
2022-09-15T18:31:45.338Z,60.57
2022-09-15T18:34:14.968Z,59.43
2022-09-15T18:36:44.896Z,59.08
2022-09-15T18:39:14.849Z,58.33
2022-09-15T18:41:44.617Z,58.34
2022-09-15T18:44:14.725Z,58.22
2022-09-15T18:46:45.913Z,58.18
2022-09-15T18:49:16.236Z,58.39
2022-09-15T18:51:53.164Z,58.41
2022-09-15T18:54:25.343Z,58.49
2022-09-15T18:56:55.080Z,58.51
2022-09-15T18:59:24.853Z,58.54
2022-09-15T19:01:54.760Z,58.48
2022-09-15T19:04:31.621Z,58.66
2022-09-15T19:07:02.802Z,58.84
2022-09-15T19:09:32.807Z,58.76
2022-09-15T19:12:02.682Z,58.59
2022-09-15T19:14:32.411Z,58.44
2022-09-15T19:17:02.116Z,58.31
2022-09-15T19:19:34.033Z,58.19
2022-09-15T19:22:04.563Z,58.14
2022-09-15T19:24:37.493Z,57.83
2022-09-15T19:27:08.478Z,57.65
2022-09-15T19:29:39.265Z,57.73
2022-09-15T19:32:12.908Z,57.67
2022-09-15T19:34:43.299Z,57.82
2022-09-15T19:37:18.506Z,57.76
2022-09-15T19:39:50.337Z,57.62
2022-09-15T19:42:19.062Z,57.61
2022-09-15T19:44:49.745Z,57.29
2022-09-15T19:47:19.715Z,57.28
2022-09-15T19:49:51.976Z,57.06
2022-09-15T19:52:21.985Z,57.15
2022-09-15T19:54:51.980Z,56.96
2022-09-15T19:57:22.443Z,56.44
2022-09-15T19:59:51.836Z,56.59
2022-09-15T20:02:21.724Z,56.63
2022-09-15T20:05:04.472Z,56.60
2022-09-15T20:07:34.648Z,56.63
2022-09-15T20:10:05.226Z,56.70
2022-09-15T20:12:34.030Z,56.94
2022-09-15T20:15:02.568Z,56.69
2022-09-15T20:17:32.776Z,56.77
2022-09-15T20:20:03.158Z,56.66
2022-09-15T20:22:33.148Z,56.67
2022-09-15T20:25:02.667Z,56.67
2022-09-15T20:27:32.759Z,56.70
2022-09-15T20:30:02.375Z,56.52
2022-09-15T20:35:21.109Z,56.77
2022-09-15T20:37:50.797Z,56.69
2022-09-15T20:40:20.451Z,56.73
2022-09-15T20:42:50.513Z,57.06
2022-09-15T20:45:20.911Z,56.48
2022-09-15T20:47:50.407Z,56.08
2022-09-15T20:50:20.586Z,55.81
2022-09-15T20:52:50.075Z,55.53
2022-09-15T20:55:19.949Z,55.53
2022-09-15T20:57:49.566Z,55.32
2022-09-15T21:00:20.409Z,55.70
2022-09-15T21:02:53.019Z,55.62
2022-09-15T21:05:23.123Z,55.73
2022-09-15T21:07:52.337Z,56.40
2022-09-15T21:10:24.519Z,56.74
2022-09-15T21:12:55.210Z,56.88
2022-09-15T21:15:24.838Z,57.32
2022-09-15T21:17:54.363Z,57.53
2022-09-15T21:20:24.011Z,57.85
2022-09-15T21:22:58.007Z,58.18
2022-09-15T21:25:27.620Z,58.30
2022-09-15T21:27:59.888Z,58.42
2022-09-15T21:30:28.455Z,58.58
2022-09-15T21:32:58.414Z,58.84
2022-09-15T21:35:28.754Z,59.06
2022-09-15T21:38:00.764Z,59.22
2022-09-15T21:40:29.302Z,59.50
2022-09-15T21:42:59.010Z,59.57
2022-09-15T21:45:28.532Z,59.86
2022-09-15T21:47:58.009Z,60.29
2022-09-15T21:50:30.047Z,60.73
2022-09-15T21:52:59.800Z,61.28
2022-09-15T21:55:30.541Z,61.10
2022-09-15T21:58:00.214Z,59.69
2022-09-15T22:00:30.442Z,59.07
2022-09-15T22:03:00.358Z,57.65
2022-09-15T22:05:30.096Z,57.56
2022-09-15T22:08:04.669Z,57.55
2022-09-15T22:10:35.633Z,57.52
2022-09-15T22:13:07.419Z,57.50
2022-09-15T22:15:37.942Z,57.68
2022-09-15T22:18:07.890Z,57.23
2022-09-15T22:20:37.085Z,57.50
2022-09-15T22:23:06.876Z,57.87
2022-09-15T22:25:36.597Z,58.56
2022-09-15T22:28:07.140Z,58.81
2022-09-15T22:30:36.877Z,58.71
2022-09-15T22:33:06.569Z,58.80
2022-09-15T22:35:35.757Z,58.37
2022-09-15T22:38:05.253Z,58.01
2022-09-15T22:40:34.915Z,58.20
2022-09-15T22:43:03.443Z,58.20
2022-09-15T22:45:33.316Z,58.28
2022-09-15T22:48:03.075Z,58.28
2022-09-15T22:50:33.062Z,57.81
2022-09-15T22:53:03.011Z,57.37
2022-09-15T22:55:32.640Z,56.64
2022-09-15T22:58:02.291Z,56.86
2022-09-15T23:00:33.357Z,56.64
2022-09-15T23:03:03.107Z,56.51
2022-09-15T23:05:34.467Z,56.44
2022-09-15T23:08:04.750Z,56.41
2022-09-15T23:10:34.464Z,56.01
2022-09-15T23:13:04.192Z,56.07
2022-09-15T23:15:35.443Z,56.16
2022-09-15T23:18:04.659Z,55.78
2022-09-15T23:20:34.442Z,55.69
2022-09-15T23:23:02.925Z,55.87
2022-09-15T23:25:32.251Z,56.07
2022-09-15T23:28:01.779Z,55.74
2022-09-15T23:30:31.765Z,55.93
2022-09-15T23:33:02.013Z,55.98
2022-09-15T23:35:30.462Z,56.07
2022-09-15T23:38:00.606Z,56.29
2022-09-15T23:40:30.833Z,56.27
2022-09-15T23:43:00.534Z,56.34
2022-09-15T23:45:32.661Z,56.52
2022-09-15T23:48:04.645Z,56.67
2022-09-15T23:50:34.777Z,56.72
2022-09-15T23:53:05.637Z,56.65
2022-09-15T23:55:35.363Z,56.56
2022-09-15T23:58:05.381Z,56.50
